sensor_id;sensor_type;location;lat;lon;timestamp;pressure;altitude;pressure_sealevel;temperature;humidity
71938;BME280;59810;48.800;9.086;2022-12-07T00:01:33;97704.69;;;4.07;84.85
71938;BME280;59810;48.800;9.086;2022-12-07T00:04:03;97697.28;;;4.10;85.21
71938;BME280;59810;48.800;9.086;2022-12-07T00:06:36;97708.19;;;4.01;85.43
71938;BME280;59810;48.800;9.086;2022-12-07T00:09:03;97697.31;;;4.03;85.13
71938;BME280;59810;48.800;9.086;2022-12-07T00:11:31;97696.88;;;4.06;84.80
71938;BME280;59810;48.800;9.086;2022-12-07T00:13:59;97698.13;;;4.03;85.17
71938;BME280;59810;48.800;9.086;2022-12-07T00:16:27;97698.94;;;4.04;84.45
71938;BME280;59810;48.800;9.086;2022-12-07T00:18:54;97701.00;;;4.09;84.49
71938;BME280;59810;48.800;9.086;2022-12-07T00:21:22;97697.28;;;4.10;84.62
71938;BME280;59810;48.800;9.086;2022-12-07T00:23:49;97694.84;;;4.01;84.55
71938;BME280;59810;48.800;9.086;2022-12-07T00:28:47;97697.09;;;4.04;84.15
71938;BME280;59810;48.800;9.086;2022-12-07T00:31:14;97695.84;;;4.07;83.99
71938;BME280;59810;48.800;9.086;2022-12-07T00:33:40;97701.19;;;4.07;84.26
71938;BME280;59810;48.800;9.086;2022-12-07T00:36:09;97694.41;;;4.04;83.90
71938;BME280;59810;48.800;9.086;2022-12-07T00:38:37;97690.94;;;3.97;84.41
71938;BME280;59810;48.800;9.086;2022-12-07T00:41:14;97690.53;;;4.00;83.84
71938;BME280;59810;48.800;9.086;2022-12-07T00:43:40;97700.81;;;3.90;83.57
71938;BME280;59810;48.800;9.086;2022-12-07T00:46:06;97688.47;;;3.96;83.58
71938;BME280;59810;48.800;9.086;2022-12-07T00:48:32;97696.09;;;3.92;82.76
71938;BME280;59810;48.800;9.086;2022-12-07T00:50:58;97687.66;;;3.95;83.32
71938;BME280;59810;48.800;9.086;2022-12-07T00:53:24;97686.22;;;3.93;83.28
71938;BME280;59810;48.800;9.086;2022-12-07T00:55:50;97692.59;;;3.92;82.67
71938;BME280;59810;48.800;9.086;2022-12-07T00:58:15;97699.38;;;3.94;82.29
71938;BME280;59810;48.800;9.086;2022-12-07T01:00:42;97695.66;;;3.95;82.50
71938;BME280;59810;48.800;9.086;2022-12-07T01:03:09;97701.00;;;3.95;82.62
71938;BME280;59810;48.800;9.086;2022-12-07T01:05:35;97703.47;;;3.90;82.46
71938;BME280;59810;48.800;9.086;2022-12-07T01:08:01;97699.97;;;3.90;82.66
71938;BME280;59810;48.800;9.086;2022-12-07T01:10:26;97708.38;;;3.87;82.93
71938;BME280;59810;48.800;9.086;2022-12-07T01:12:54;97697.28;;;3.83;82.96
71938;BME280;59810;48.800;9.086;2022-12-07T01:15:19;97691.75;;;3.78;83.48
71938;BME280;59810;48.800;9.086;2022-12-07T01:17:45;97700.38;;;3.80;83.95
71938;BME280;59810;48.800;9.086;2022-12-07T01:20:11;97693.59;;;3.78;83.51
71938;BME280;59810;48.800;9.086;2022-12-07T01:22:38;97700.16;;;3.82;83.71
71938;BME280;59810;48.800;9.086;2022-12-07T01:25:07;97696.88;;;3.86;83.55
71938;BME280;59810;48.800;9.086;2022-12-07T01:27:33;97705.50;;;3.88;83.66
71938;BME280;59810;48.800;9.086;2022-12-07T01:29:59;97708.59;;;3.85;83.62
71938;BME280;59810;48.800;9.086;2022-12-07T01:32:25;97702.44;;;3.85;84.25
71938;BME280;59810;48.800;9.086;2022-12-07T01:34:51;97706.53;;;3.87;84.33
71938;BME280;59810;48.800;9.086;2022-12-07T01:37:18;97707.97;;;3.90;83.80
71938;BME280;59810;48.800;9.086;2022-12-07T01:39:44;97709.00;;;3.89;83.31
71938;BME280;59810;48.800;9.086;2022-12-07T01:42:10;97712.50;;;3.89;83.39
71938;BME280;59810;48.800;9.086;2022-12-07T01:47:39;97712.09;;;3.92;83.30
71938;BME280;59810;48.800;9.086;2022-12-07T01:50:05;97714.16;;;3.90;82.96
71938;BME280;59810;48.800;9.086;2022-12-07T01:52:33;97710.25;;;3.93;82.25
71938;BME280;59810;48.800;9.086;2022-12-07T01:55:09;97709.63;;;3.97;82.23
71938;BME280;59810;48.800;9.086;2022-12-07T01:57:40;97714.56;;;3.94;82.14
71938;BME280;59810;48.800;9.086;2022-12-07T02:00:07;97709.22;;;3.94;82.40
71938;BME280;59810;48.800;9.086;2022-12-07T02:02:36;97717.84;;;3.89;83.19
71938;BME280;59810;48.800;9.086;2022-12-07T02:05:04;97710.47;;;3.91;82.76
71938;BME280;59810;48.800;9.086;2022-12-07T02:07:31;97708.41;;;3.93;82.67
71938;BME280;59810;48.800;9.086;2022-12-07T02:10:22;97705.94;;;3.98;83.08
71938;BME280;59810;48.800;9.086;2022-12-07T02:12:58;97705.09;;;4.04;82.56
71938;BME280;59810;48.800;9.086;2022-12-07T02:15:37;97705.72;;;4.00;82.15
71938;BME280;59810;48.800;9.086;2022-12-07T02:18:10;97714.75;;;4.05;82.10
71938;BME280;59810;48.800;9.086;2022-12-07T02:20:57;97705.31;;;4.10;82.23
71938;BME280;59810;48.800;9.086;2022-12-07T02:23:30;97697.50;;;4.08;82.54
71938;BME280;59810;48.800;9.086;2022-12-07T02:31:30;97692.16;;;4.08;82.46
71938;BME280;59810;48.800;9.086;2022-12-07T02:34:24;97697.50;;;4.08;82.25
71938;BME280;59810;48.800;9.086;2022-12-07T02:36:57;97691.34;;;4.01;82.78
71938;BME280;59810;48.800;9.086;2022-12-07T02:39:37;97686.00;;;4.07;82.57
71938;BME280;59810;48.800;9.086;2022-12-07T02:42:14;97689.47;;;4.08;81.89
71938;BME280;59810;48.800;9.086;2022-12-07T02:44:40;97684.13;;;4.08;81.92
71938;BME280;59810;48.800;9.086;2022-12-07T02:47:09;97686.00;;;4.01;82.47
71938;BME280;59810;48.800;9.086;2022-12-07T02:49:38;97684.75;;;4.10;82.25
71938;BME280;59810;48.800;9.086;2022-12-07T02:52:05;97678.81;;;4.08;82.00
71938;BME280;59810;48.800;9.086;2022-12-07T02:54:30;97682.28;;;4.09;82.11
71938;BME280;59810;48.800;9.086;2022-12-07T03:11:16;97666.91;;;3.97;82.55
71938;BME280;59810;48.800;9.086;2022-12-07T03:18:55;97664.22;;;3.84;83.74
71938;BME280;59810;48.800;9.086;2022-12-07T03:21:24;97664.84;;;3.86;83.92
71938;BME280;59810;48.800;9.086;2022-12-07T03:23:56;97661.38;;;3.92;82.84
71938;BME280;59810;48.800;9.086;2022-12-07T03:26:28;97664.63;;;3.88;82.21
71938;BME280;59810;48.800;9.086;2022-12-07T03:29:02;97662.16;;;3.86;81.61
71938;BME280;59810;48.800;9.086;2022-12-07T03:31:37;97660.53;;;3.85;80.91
71938;BME280;59810;48.800;9.086;2022-12-07T03:34:11;97659.50;;;3.86;80.27
71938;BME280;59810;48.800;9.086;2022-12-07T03:36:50;97649.03;;;3.85;78.80
71938;BME280;59810;48.800;9.086;2022-12-07T03:39:26;97646.75;;;3.88;78.85
71938;BME280;59810;48.800;9.086;2022-12-07T03:41:55;97646.97;;;3.80;77.23
71938;BME280;59810;48.800;9.086;2022-12-07T03:44:22;97645.13;;;3.81;77.11
71938;BME280;59810;48.800;9.086;2022-12-07T03:47:13;97648.63;;;3.74;75.66
71938;BME280;59810;48.800;9.086;2022-12-07T03:49:46;97653.56;;;3.78;75.31
71938;BME280;59810;48.800;9.086;2022-12-07T03:52:33;97652.94;;;3.82;74.55
71938;BME280;59810;48.800;9.086;2022-12-07T03:57:37;97649.66;;;3.80;74.79
71938;BME280;59810;48.800;9.086;2022-12-07T04:00:05;97643.47;;;3.80;74.97
71938;BME280;59810;48.800;9.086;2022-12-07T04:02:34;97639.78;;;3.74;75.17
71938;BME280;59810;48.800;9.086;2022-12-07T04:04:59;97644.72;;;3.77;75.87
71938;BME280;59810;48.800;9.086;2022-12-07T04:07:25;97641.03;;;3.78;75.90
71938;BME280;59810;48.800;9.086;2022-12-07T04:09:50;97646.34;;;3.78;75.91
71938;BME280;59810;48.800;9.086;2022-12-07T04:12:16;97634.66;;;3.72;75.07
71938;BME280;59810;48.800;9.086;2022-12-07T04:14:43;97638.16;;;3.73;74.38
71938;BME280;59810;48.800;9.086;2022-12-07T04:17:09;97643.28;;;3.74;74.17
71938;BME280;59810;48.800;9.086;2022-12-07T04:19:34;97636.91;;;3.75;73.96
71938;BME280;59810;48.800;9.086;2022-12-07T04:22:01;97634.03;;;3.77;73.52
71938;BME280;59810;48.800;9.086;2022-12-07T04:24:27;97639.16;;;3.79;73.33
71938;BME280;59810;48.800;9.086;2022-12-07T04:26:53;97635.88;;;3.77;72.91
71938;BME280;59810;48.800;9.086;2022-12-07T04:29:18;97617.00;;;3.78;71.39
71938;BME280;59810;48.800;9.086;2022-12-07T04:31:44;97605.88;;;3.81;70.27
71938;BME280;59810;48.800;9.086;2022-12-07T04:34:10;97610.19;;;3.82;69.21
71938;BME280;59810;48.800;9.086;2022-12-07T04:36:36;97600.56;;;3.81;70.58
71938;BME280;59810;48.800;9.086;2022-12-07T04:39:02;97598.50;;;3.83;71.74
71938;BME280;59810;48.800;9.086;2022-12-07T04:41:28;97599.75;;;3.74;72.35
71938;BME280;59810;48.800;9.086;2022-12-07T04:43:58;97582.28;;;3.71;71.75
71938;BME280;59810;48.800;9.086;2022-12-07T04:46:25;97584.34;;;3.76;70.80
71938;BME280;59810;48.800;9.086;2022-12-07T04:48:52;97588.66;;;3.77;71.24
71938;BME280;59810;48.800;9.086;2022-12-07T04:51:28;97589.28;;;3.72;71.12
71938;BME280;59810;48.800;9.086;2022-12-07T04:53:54;97589.69;;;3.69;71.09
71938;BME280;59810;48.800;9.086;2022-12-07T04:56:21;97592.56;;;3.68;72.05
71938;BME280;59810;48.800;9.086;2022-12-07T04:58:47;97595.22;;;3.74;70.53
71938;BME280;59810;48.800;9.086;2022-12-07T05:01:14;97596.66;;;3.77;70.09
71938;BME280;59810;48.800;9.086;2022-12-07T05:03:40;97597.91;;;3.74;69.04
71938;BME280;59810;48.800;9.086;2022-12-07T05:06:06;97598.28;;;3.78;68.09
71938;BME280;59810;48.800;9.086;2022-12-07T05:08:33;97595.84;;;3.70;68.21
71938;BME280;59810;48.800;9.086;2022-12-07T05:10:58;97598.53;;;3.63;68.70
71938;BME280;59810;48.800;9.086;2022-12-07T05:13:24;97604.91;;;3.62;70.05
71938;BME280;59810;48.800;9.086;2022-12-07T05:15:49;97612.28;;;3.54;71.48
71938;BME280;59810;48.800;9.086;2022-12-07T05:18:14;97623.78;;;3.48;72.29
71938;BME280;59810;48.800;9.086;2022-12-07T05:20:43;97629.53;;;3.38;72.91
71938;BME280;59810;48.800;9.086;2022-12-07T05:23:09;97625.41;;;3.29;73.27
71938;BME280;59810;48.800;9.086;2022-12-07T05:25:35;97626.00;;;3.18;73.51
71938;BME280;59810;48.800;9.086;2022-12-07T05:28:03;97633.16;;;3.10;75.49
71938;BME280;59810;48.800;9.086;2022-12-07T05:30:32;97638.91;;;3.01;76.88
71938;BME280;59810;48.800;9.086;2022-12-07T05:32:57;97637.25;;;3.00;77.02
71938;BME280;59810;48.800;9.086;2022-12-07T05:35:26;97629.88;;;2.95;77.89
71938;BME280;59810;48.800;9.086;2022-12-07T05:37:52;97643.41;;;2.94;77.71
71938;BME280;59810;48.800;9.086;2022-12-07T05:40:20;97645.00;;;2.88;78.04
71938;BME280;59810;48.800;9.086;2022-12-07T05:42:45;97643.75;;;2.84;77.65
71938;BME280;59810;48.800;9.086;2022-12-07T05:45:10;97644.59;;;2.85;78.01
71938;BME280;59810;48.800;9.086;2022-12-07T05:47:36;97642.53;;;2.80;78.14
71938;BME280;59810;48.800;9.086;2022-12-07T05:50:03;97646.63;;;2.83;78.11
71938;BME280;59810;48.800;9.086;2022-12-07T05:52:29;97650.31;;;2.81;78.05
71938;BME280;59810;48.800;9.086;2022-12-07T05:54:54;97645.00;;;2.81;78.13
71938;BME280;59810;48.800;9.086;2022-12-07T05:57:19;97641.91;;;2.85;78.42
71938;BME280;59810;48.800;9.086;2022-12-07T05:59:45;97641.72;;;2.86;78.22
71938;BME280;59810;48.800;9.086;2022-12-07T06:02:13;97643.38;;;2.87;78.08
71938;BME280;59810;48.800;9.086;2022-12-07T06:04:42;97641.28;;;2.69;79.75
71938;BME280;59810;48.800;9.086;2022-12-07T06:07:08;97638.63;;;2.76;79.78
71938;BME280;59810;48.800;9.086;2022-12-07T06:09:34;97636.16;;;2.74;79.61
71938;BME280;59810;48.800;9.086;2022-12-07T06:11:59;97626.53;;;2.80;78.83
71938;BME280;59810;48.800;9.086;2022-12-07T06:14:44;97632.91;;;2.86;78.34
71938;BME280;59810;48.800;9.086;2022-12-07T06:17:12;97638.03;;;2.87;78.03
71938;BME280;59810;48.800;9.086;2022-12-07T06:19:38;97640.50;;;2.89;77.35
71938;BME280;59810;48.800;9.086;2022-12-07T06:22:07;97651.78;;;2.91;78.37
71938;BME280;59810;48.800;9.086;2022-12-07T06:24:34;97654.25;;;2.92;78.58
71938;BME280;59810;48.800;9.086;2022-12-07T06:27:00;97652.63;;;2.98;77.85
71938;BME280;59810;48.800;9.086;2022-12-07T06:29:26;97651.22;;;3.02;77.97
71938;BME280;59810;48.800;9.086;2022-12-07T06:31:51;97645.28;;;3.06;77.14
71938;BME280;59810;48.800;9.086;2022-12-07T06:34:18;97644.88;;;3.09;76.54
71938;BME280;59810;48.800;9.086;2022-12-07T06:36:45;97656.16;;;3.18;78.65
71938;BME280;59810;48.800;9.086;2022-12-07T06:39:16;97643.69;;;3.25;76.72
71938;BME280;59810;48.800;9.086;2022-12-07T06:41:41;97644.25;;;3.21;74.14
71938;BME280;59810;48.800;9.086;2022-12-07T06:44:07;97640.41;;;3.30;74.10
71938;BME280;59810;48.800;9.086;2022-12-07T06:46:33;97633.22;;;3.30;73.35
71938;BME280;59810;48.800;9.086;2022-12-07T06:49:00;97638.56;;;3.30;73.29
71938;BME280;59810;48.800;9.086;2022-12-07T06:51:26;97633.63;;;3.27;72.51
71938;BME280;59810;48.800;9.086;2022-12-07T06:53:51;97638.50;;;3.24;72.90
71938;BME280;59810;48.800;9.086;2022-12-07T06:56:16;97645.13;;;3.28;71.65
71938;BME280;59810;48.800;9.086;2022-12-07T06:58:42;97636.50;;;3.26;71.97
71938;BME280;59810;48.800;9.086;2022-12-07T07:01:11;97639.34;;;3.24;71.92
71938;BME280;59810;48.800;9.086;2022-12-07T07:03:37;97642.19;;;3.16;72.04
71938;BME280;59810;48.800;9.086;2022-12-07T07:06:03;97656.78;;;3.20;72.05
71938;BME280;59810;48.800;9.086;2022-12-07T07:08:29;97651.69;;;3.25;72.36
71938;BME280;59810;48.800;9.086;2022-12-07T07:10:54;97659.91;;;3.30;71.50
71938;BME280;59810;48.800;9.086;2022-12-07T07:13:19;97656.81;;;3.33;71.58
71938;BME280;59810;48.800;9.086;2022-12-07T07:15:45;97658.88;;;3.31;71.09
71938;BME280;59810;48.800;9.086;2022-12-07T07:18:10;97658.66;;;3.39;71.00
71938;BME280;59810;48.800;9.086;2022-12-07T07:20:36;97663.81;;;3.41;71.21
71938;BME280;59810;48.800;9.086;2022-12-07T07:23:04;97651.28;;;3.41;71.38
71938;BME280;59810;48.800;9.086;2022-12-07T07:25:30;97663.19;;;3.46;70.90
71938;BME280;59810;48.800;9.086;2022-12-07T07:27:56;97659.91;;;3.50;70.92
71938;BME280;59810;48.800;9.086;2022-12-07T07:30:22;97662.78;;;3.42;70.48
71938;BME280;59810;48.800;9.086;2022-12-07T07:32:47;97659.69;;;3.45;70.63
71938;BME280;59810;48.800;9.086;2022-12-07T07:35:15;97666.25;;;3.49;70.47
71938;BME280;59810;48.800;9.086;2022-12-07T07:37:42;97663.19;;;3.52;70.90
71938;BME280;59810;48.800;9.086;2022-12-07T07:40:09;97664.81;;;3.53;71.23
71938;BME280;59810;48.800;9.086;2022-12-07T07:42:35;97667.09;;;3.56;70.51
71938;BME280;59810;48.800;9.086;2022-12-07T07:45:00;97666.91;;;3.58;70.33
71938;BME280;59810;48.800;9.086;2022-12-07T07:47:28;97667.53;;;3.60;69.61
71938;BME280;59810;48.800;9.086;2022-12-07T07:49:54;97669.13;;;3.54;69.66
71938;BME280;59810;48.800;9.086;2022-12-07T07:52:19;97673.28;;;3.63;69.71
71938;BME280;59810;48.800;9.086;2022-12-07T07:54:44;97670.81;;;3.62;69.67
71938;BME280;59810;48.800;9.086;2022-12-07T07:57:10;97665.06;;;3.65;68.98
71938;BME280;59810;48.800;9.086;2022-12-07T07:59:35;97671.00;;;3.73;69.03
71938;BME280;59810;48.800;9.086;2022-12-07T08:02:00;97674.50;;;3.67;68.10
71938;BME280;59810;48.800;9.086;2022-12-07T08:04:28;97678.41;;;3.78;68.29
71938;BME280;59810;48.800;9.086;2022-12-07T08:06:53;97679.41;;;3.84;67.95
71938;BME280;59810;48.800;9.086;2022-12-07T08:09:19;97680.25;;;3.84;67.83
71938;BME280;59810;48.800;9.086;2022-12-07T08:11:44;97677.97;;;3.81;68.20
71938;BME280;59810;48.800;9.086;2022-12-07T08:14:10;97679.00;;;3.80;68.81
71938;BME280;59810;48.800;9.086;2022-12-07T08:16:36;97676.13;;;3.82;68.56
71938;BME280;59810;48.800;9.086;2022-12-07T08:19:04;97672.44;;;3.89;68.31
71938;BME280;59810;48.800;9.086;2022-12-07T08:21:29;97678.22;;;3.93;67.61
71938;BME280;59810;48.800;9.086;2022-12-07T08:23:58;97674.31;;;3.95;67.47
71938;BME280;59810;48.800;9.086;2022-12-07T08:26:24;97677.38;;;3.99;66.85
71938;BME280;59810;48.800;9.086;2022-12-07T08:28:52;97683.94;;;4.10;66.56
71938;BME280;59810;48.800;9.086;2022-12-07T08:31:18;97687.84;;;4.14;66.76
71938;BME280;59810;48.800;9.086;2022-12-07T08:33:45;97685.75;;;4.22;66.70
71938;BME280;59810;48.800;9.086;2022-12-07T08:36:12;97682.69;;;4.19;66.16
71938;BME280;59810;48.800;9.086;2022-12-07T08:38:39;97692.34;;;4.13;66.42
71938;BME280;59810;48.800;9.086;2022-12-07T08:41:08;97696.44;;;4.22;66.08
71938;BME280;59810;48.800;9.086;2022-12-07T08:43:36;97693.16;;;4.33;66.55
71938;BME280;59810;48.800;9.086;2022-12-07T08:46:28;97694.34;;;4.44;65.38
71938;BME280;59810;48.800;9.086;2022-12-07T08:49:04;97686.13;;;4.46;65.79
71938;BME280;59810;48.800;9.086;2022-12-07T08:51:31;97683.03;;;4.49;65.22
71938;BME280;59810;48.800;9.086;2022-12-07T08:53:58;97692.06;;;4.54;65.20
71938;BME280;59810;48.800;9.086;2022-12-07T08:56:26;97684.47;;;4.51;65.60
71938;BME280;59810;48.800;9.086;2022-12-07T08:58:51;97688.78;;;4.52;65.78
71938;BME280;59810;48.800;9.086;2022-12-07T09:01:17;97689.22;;;4.56;65.64
71938;BME280;59810;48.800;9.086;2022-12-07T09:03:42;97684.44;;;4.64;65.91
71938;BME280;59810;48.800;9.086;2022-12-07T09:06:08;97678.50;;;4.56;65.77
71938;BME280;59810;48.800;9.086;2022-12-07T09:08:36;97687.97;;;4.58;65.97
71938;BME280;59810;48.800;9.086;2022-12-07T09:11:05;97681.56;;;4.66;65.75
71938;BME280;59810;48.800;9.086;2022-12-07T09:13:31;97680.72;;;4.65;66.13
71938;BME280;59810;48.800;9.086;2022-12-07T09:15:56;97686.25;;;4.71;66.12
71938;BME280;59810;48.800;9.086;2022-12-07T09:18:22;97685.22;;;4.72;65.77
71938;BME280;59810;48.800;9.086;2022-12-07T09:20:47;97682.31;;;4.80;65.70
71938;BME280;59810;48.800;9.086;2022-12-07T09:23:12;97680.03;;;4.83;65.53
71938;BME280;59810;48.800;9.086;2022-12-07T09:25:38;97686.19;;;4.90;65.76
71938;BME280;59810;48.800;9.086;2022-12-07T09:28:06;97681.25;;;4.94;65.31
71938;BME280;59810;48.800;9.086;2022-12-07T09:30:31;97679.78;;;4.98;65.54
71938;BME280;59810;48.800;9.086;2022-12-07T09:32:57;97686.16;;;4.97;66.12
71938;BME280;59810;48.800;9.086;2022-12-07T09:35:23;97684.28;;;5.04;65.58
71938;BME280;59810;48.800;9.086;2022-12-07T09:37:48;97680.56;;;5.05;65.66
71938;BME280;59810;48.800;9.086;2022-12-07T09:40:15;97678.84;;;5.17;65.47
71938;BME280;59810;48.800;9.086;2022-12-07T09:42:44;97673.09;;;5.20;65.36
71938;BME280;59810;48.800;9.086;2022-12-07T09:45:17;97687.09;;;5.22;66.56
71938;BME280;59810;48.800;9.086;2022-12-07T09:47:44;97686.22;;;5.28;66.20
71938;BME280;59810;48.800;9.086;2022-12-07T09:50:24;97679.66;;;5.24;66.78
71938;BME280;59810;48.800;9.086;2022-12-07T09:52:51;97677.53;;;5.33;66.41
71938;BME280;59810;48.800;9.086;2022-12-07T09:55:26;97677.50;;;5.40;66.00
71938;BME280;59810;48.800;9.086;2022-12-07T09:57:53;97666.34;;;5.43;66.07
71938;BME280;59810;48.800;9.086;2022-12-07T10:00:20;97666.94;;;5.45;66.26
71938;BME280;59810;48.800;9.086;2022-12-07T10:05:18;97656.94;;;5.34;66.50
71938;BME280;59810;48.800;9.086;2022-12-07T10:07:44;97665.34;;;5.37;66.72
71938;BME280;59810;48.800;9.086;2022-12-07T10:10:18;97660.16;;;5.42;66.10
71938;BME280;59810;48.800;9.086;2022-12-07T10:15:20;97645.03;;;5.29;67.54
71938;BME280;59810;48.800;9.086;2022-12-07T10:17:51;97633.72;;;5.52;67.23
71938;BME280;59810;48.800;9.086;2022-12-07T10:20:34;97638.56;;;5.69;66.52
71938;BME280;59810;48.800;9.086;2022-12-07T10:23:04;97636.97;;;5.61;66.45
71938;BME280;59810;48.800;9.086;2022-12-07T10:25:35;97635.50;;;5.65;66.68
71938;BME280;59810;48.800;9.086;2022-12-07T10:28:09;97640.25;;;5.63;67.31
71938;BME280;59810;48.800;9.086;2022-12-07T10:33:36;97638.78;;;5.67;67.33
71938;BME280;59810;48.800;9.086;2022-12-07T10:39:14;97643.16;;;5.61;67.96
71938;BME280;59810;48.800;9.086;2022-12-07T10:42:00;97636.22;;;5.54;68.14
71938;BME280;59810;48.800;9.086;2022-12-07T10:44:31;97641.94;;;5.57;68.01
71938;BME280;59810;48.800;9.086;2022-12-07T10:49:40;97632.91;;;5.52;68.40
71938;BME280;59810;48.800;9.086;2022-12-07T10:57:37;97621.22;;;5.46;69.04
71938;BME280;59810;48.800;9.086;2022-12-07T11:03:12;97615.41;;;5.49;69.76
71938;BME280;59810;48.800;9.086;2022-12-07T11:05:56;97610.28;;;5.48;69.69
71938;BME280;59810;48.800;9.086;2022-12-07T11:11:07;97611.16;;;5.42;70.27
71938;BME280;59810;48.800;9.086;2022-12-07T11:13:48;97605.81;;;5.42;69.83
71938;BME280;59810;48.800;9.086;2022-12-07T11:16:24;97607.94;;;5.33;69.92
71938;BME280;59810;48.800;9.086;2022-12-07T11:22:10;97598.81;;;5.41;69.98
71938;BME280;59810;48.800;9.086;2022-12-07T11:24:52;97605.81;;;5.42;69.82
71938;BME280;59810;48.800;9.086;2022-12-07T11:28:02;97601.88;;;5.44;70.42
71938;BME280;59810;48.800;9.086;2022-12-07T11:33:42;97602.31;;;5.41;71.69
71938;BME280;59810;48.800;9.086;2022-12-07T11:36:37;97599.47;;;5.36;71.71
71938;BME280;59810;48.800;9.086;2022-12-07T11:41:40;97597.00;;;5.35;72.65
71938;BME280;59810;48.800;9.086;2022-12-07T11:44:08;97593.56;;;5.27;73.05
71938;BME280;59810;48.800;9.086;2022-12-07T11:51:39;97584.56;;;5.22;72.83
71938;BME280;59810;48.800;9.086;2022-12-07T11:54:16;97585.78;;;5.19;73.60
71938;BME280;59810;48.800;9.086;2022-12-07T11:56:43;97574.06;;;5.20;74.11
71938;BME280;59810;48.800;9.086;2022-12-07T11:59:25;97573.78;;;5.28;73.75
71938;BME280;59810;48.800;9.086;2022-12-07T12:02:16;97572.53;;;5.31;73.93
71938;BME280;59810;48.800;9.086;2022-12-07T12:07:21;97575.94;;;5.13;74.10
71938;BME280;59810;48.800;9.086;2022-12-07T12:09:53;97572.22;;;5.14;73.76
71938;BME280;59810;48.800;9.086;2022-12-07T12:12:23;97567.69;;;5.15;74.78
71938;BME280;59810;48.800;9.086;2022-12-07T12:20:29;97570.44;;;5.08;73.45
71938;BME280;59810;48.800;9.086;2022-12-07T12:23:16;97571.50;;;5.00;73.24
71938;BME280;59810;48.800;9.086;2022-12-07T12:28:28;97561.28;;;4.91;74.06
71938;BME280;59810;48.800;9.086;2022-12-07T12:31:15;97556.78;;;4.85;73.82
71938;BME280;59810;48.800;9.086;2022-12-07T12:33:47;97558.47;;;4.79;74.31
71938;BME280;59810;48.800;9.086;2022-12-07T12:46:57;97560.06;;;4.87;74.54
71938;BME280;59810;48.800;9.086;2022-12-07T12:51:50;97559.06;;;4.88;74.37
71938;BME280;59810;48.800;9.086;2022-12-07T12:59:56;97552.25;;;4.85;73.20
71938;BME280;59810;48.800;9.086;2022-12-07T13:02:22;97544.81;;;4.87;72.99
71938;BME280;59810;48.800;9.086;2022-12-07T13:05:02;97534.53;;;4.91;72.62
71938;BME280;59810;48.800;9.086;2022-12-07T13:23:12;97517.34;;;5.05;71.85
71938;BME280;59810;48.800;9.086;2022-12-07T13:25:49;97518.88;;;4.94;72.01
71938;BME280;59810;48.800;9.086;2022-12-07T13:28:17;97520.94;;;4.92;72.10
71938;BME280;59810;48.800;9.086;2022-12-07T13:30:57;97515.97;;;4.96;72.40
71938;BME280;59810;48.800;9.086;2022-12-07T13:33:27;97517.56;;;5.04;72.04
71938;BME280;59810;48.800;9.086;2022-12-07T13:35:54;97522.44;;;5.13;71.87
71938;BME280;59810;48.800;9.086;2022-12-07T13:38:30;97517.72;;;5.09;72.25
71938;BME280;59810;48.800;9.086;2022-12-07T13:41:17;97509.66;;;5.15;72.43
71938;BME280;59810;48.800;9.086;2022-12-07T13:44:14;97509.25;;;5.12;72.18
71938;BME280;59810;48.800;9.086;2022-12-07T13:47:09;97518.94;;;5.13;72.02
71938;BME280;59810;48.800;9.086;2022-12-07T13:49:47;97507.63;;;5.11;72.03
71938;BME280;59810;48.800;9.086;2022-12-07T13:52:20;97509.50;;;5.10;72.18
71938;BME280;59810;48.800;9.086;2022-12-07T13:54:48;97510.53;;;5.09;71.85
71938;BME280;59810;48.800;9.086;2022-12-07T13:57:16;97507.31;;;5.00;71.67
71938;BME280;59810;48.800;9.086;2022-12-07T13:59:41;97504.13;;;5.10;72.05
71938;BME280;59810;48.800;9.086;2022-12-07T14:02:26;97495.59;;;5.20;72.24
71938;BME280;59810;48.800;9.086;2022-12-07T14:05:22;97505.41;;;5.32;75.96
71938;BME280;59810;48.800;9.086;2022-12-07T14:10:54;97509.06;;;5.38;71.79
71938;BME280;59810;48.800;9.086;2022-12-07T14:13:31;97503.09;;;5.36;71.53
71938;BME280;59810;48.800;9.086;2022-12-07T14:16:01;97504.75;;;5.37;72.08
71938;BME280;59810;48.800;9.086;2022-12-07T14:21:16;97505.56;;;5.38;71.73
71938;BME280;59810;48.800;9.086;2022-12-07T14:23:45;97497.09;;;5.41;71.58
71938;BME280;59810;48.800;9.086;2022-12-07T14:26:16;97499.97;;;5.39;71.81
71938;BME280;59810;48.800;9.086;2022-12-07T14:28:43;97500.50;;;5.29;71.81
71938;BME280;59810;48.800;9.086;2022-12-07T14:31:18;97497.22;;;5.27;72.25
71938;BME280;59810;48.800;9.086;2022-12-07T14:33:45;97498.09;;;5.21;72.07
71938;BME280;59810;48.800;9.086;2022-12-07T14:36:11;97501.03;;;5.13;72.70
71938;BME280;59810;48.800;9.086;2022-12-07T14:38:40;97498.78;;;5.10;72.49
71938;BME280;59810;48.800;9.086;2022-12-07T14:41:12;97504.28;;;5.15;74.09
71938;BME280;59810;48.800;9.086;2022-12-07T14:43:59;97502.72;;;5.08;73.35
71938;BME280;59810;48.800;9.086;2022-12-07T14:46:24;97506.91;;;4.97;73.60
71938;BME280;59810;48.800;9.086;2022-12-07T14:48:52;97506.03;;;5.03;73.53
71938;BME280;59810;48.800;9.086;2022-12-07T14:51:17;97511.72;;;4.88;73.87
71938;BME280;59810;48.800;9.086;2022-12-07T14:53:48;97511.75;;;4.82;73.67
71938;BME280;59810;48.800;9.086;2022-12-07T14:56:14;97514.84;;;4.79;73.79
71938;BME280;59810;48.800;9.086;2022-12-07T14:58:40;97503.56;;;4.77;74.32
71938;BME280;59810;48.800;9.086;2022-12-07T15:01:06;97517.41;;;4.67;73.37
71938;BME280;59810;48.800;9.086;2022-12-07T15:03:31;97509.59;;;4.65;73.74
71938;BME280;59810;48.800;9.086;2022-12-07T15:05:57;97510.47;;;4.59;73.32
71938;BME280;59810;48.800;9.086;2022-12-07T15:08:23;97507.97;;;4.64;73.40
71938;BME280;59810;48.800;9.086;2022-12-07T15:10:49;97507.78;;;4.59;73.97
71938;BME280;59810;48.800;9.086;2022-12-07T15:13:14;97510.09;;;4.49;74.05
71938;BME280;59810;48.800;9.086;2022-12-07T15:15:58;97508.25;;;4.50;74.15
71938;BME280;59810;48.800;9.086;2022-12-07T15:18:27;97519.78;;;4.44;74.31
71938;BME280;59810;48.800;9.086;2022-12-07T15:20:52;97524.31;;;4.43;74.66
71938;BME280;59810;48.800;9.086;2022-12-07T15:23:18;97520.22;;;4.41;75.16
71938;BME280;59810;48.800;9.086;2022-12-07T15:25:45;97513.06;;;4.34;75.42